NCAR-RAP Real-Time Weather Data

Output produced by METARs form (12 August 2020  18:31 UTC)
found at http://weather.rap.ucar.edu/surface/
 
KAMA 121453Z 22019KT 10SM CLR 30/13 A3001 RMK AO2 SLP096 T03000133 51006
KAMA 121353Z 22013G21KT 10SM CLR 26/13 A3001 RMK AO2 SLP097 T02610133
KAMA 121253Z 20012KT 10SM CLR 24/13 A3000 RMK AO2 SLP094 T02390128
KAMA 121153Z 21012KT 10SM CLR 23/12 A2999 RMK AO2 SLP090 T02330122 10261 20217 53006
KAMA 121053Z 18014KT 10SM CLR 23/12 A2997 RMK AO2 PK WND 19031/1019 SLP082 T02330122
KAMA 120953Z AUTO 18014KT 10SM CLR 24/12 A2997 RMK AO2 SLP080 T02390117 TSNO
KAMA 120853Z AUTO 17009KT 10SM CLR 24/11 A2997 RMK AO2 SLP082 T02390111 58000
KAMA 120753Z AUTO 15008KT 10SM CLR 23/12 A2997 RMK AO2 SLP085 T02280122
KAMA 120653Z AUTO 15008KT 10SM CLR 26/13 A2999 RMK AO2 SLP089 T02560128
KAMA 120553Z AUTO 14011KT 10SM CLR 26/13 A2997 RMK AO2 SLP083 T02560128 10356 20250 403670194 50004
KAMA 120453Z AUTO 13010KT 10SM CLR 27/12 A2997 RMK AO2 SLP083 T02670122
KAMA 120353Z 15012KT 10SM CLR 28/12 A2998 RMK AO2 SLP087 T02780117
KAMA 120253Z 14014KT 10SM CLR 29/13 A2996 RMK AO2 SLP081 T02940128 53007
KAMA 120214Z 13011KT 10SM CLR 31/12 A2996 RMK AO2 T03060117
KAMA 120153Z 12011KT 10SM VCTS CLR 32/12 A2996 RMK AO2 PK WND 15027/0059 SLP082 T03220117
KAMA 120138Z 14012KT 10SM CLR 33/12 A2995 RMK AO2 PK WND 15027/0059 LTG DSNT E T03280122
KAMA 120053Z 15021KT 10SM VCTS CLR 34/13 A2993 RMK AO2 PK WND 15028/0034 LTG DSNT N AND NE SLP071 T03440128
KAMA 120039Z 15020G28KT 10SM VCTS CLR 35/13 A2993 RMK AO2 PK WND 15028/0034 LTG DSNT N AND NE T03500128
KAMA 120009Z 16021KT 10SM CLR 36/13 A2993 RMK AO2 PK WND 15027/2357 LTG DSNT N T03560133
KAMA 112353Z 16018G25KT 10SM VCTS CLR 36/14 A2994 RMK AO2 PK WND 15027/2258 LTG DSNT N AND NW SLP075 T03560139 10367 20339 56010
KAMA 112253Z 15018G31KT 10SM CLR 37/14 A2995 RMK AO2 PK WND 15031/2250 SLP077 T03670139
KAMA 112153Z 18015G24KT 10SM CLR 37/15 A2996 RMK AO2 PK WND 14028/2141 SLP081 T03670150